createdAt,value
2017-10-06T00:00:33.482Z,10.3
2017-10-06T00:01:33.150Z,10.32
2017-10-06T00:02:33.135Z,10.24
2017-10-06T00:03:33.438Z,10.21
2017-10-06T00:04:32.777Z,10.22
2017-10-06T00:05:33.082Z,10.24
2017-10-06T00:06:33.389Z,10.19
2017-10-06T00:07:32.726Z,10.24
2017-10-06T00:08:32.707Z,10.22
2017-10-06T00:09:33.020Z,10.25
2017-10-06T00:10:32.999Z,10.32
2017-10-06T00:11:32.658Z,10.24
2017-10-06T00:12:33.172Z,10.24
2017-10-06T00:13:33.269Z,10.34
2017-10-06T00:14:32.931Z,10.3
2017-10-06T00:15:33.237Z,10.28
2017-10-06T00:16:32.579Z,10.33
2017-10-06T00:17:33.204Z,10.33
2017-10-06T00:18:32.866Z,10.3
2017-10-06T00:19:32.527Z,10.36
2017-10-06T00:20:32.839Z,10.4
2017-10-06T00:21:32.820Z,10.4
2017-10-06T00:22:32.802Z,10.44
2017-10-06T00:23:32.470Z,10.51
2017-10-06T00:24:32.761Z,10.37
2017-10-06T00:25:33.072Z,10.4
2017-10-06T00:26:33.061Z,10.4
2017-10-06T00:27:32.719Z,10.51
2017-10-06T00:28:32.695Z,10.53
2017-10-06T00:29:33.002Z,10.47
2017-10-06T00:30:32.981Z,10.53
2017-10-06T00:31:32.968Z,10.44
2017-10-06T00:32:32.635Z,10.47
2017-10-06T00:33:32.932Z,10.52
2017-10-06T00:34:32.274Z,10.53
2017-10-06T00:35:32.583Z,10.51
2017-10-06T00:36:32.564Z,10.51
2017-10-06T00:37:32.549Z,10.52
2017-10-06T00:38:32.853Z,10.52
2017-10-06T00:39:32.517Z,10.55
2017-10-06T00:40:32.818Z,10.52
2017-10-06T00:41:32.802Z,10.58
2017-10-06T00:42:32.466Z,10.55
2017-10-06T00:43:32.446Z,10.53
2017-10-06T00:44:32.757Z,10.56
2017-10-06T00:45:32.411Z,10.58
2017-10-06T00:46:32.402Z,10.56
2017-10-06T00:47:32.384Z,10.58
2017-10-06T00:48:32.365Z,10.51
2017-10-06T00:49:32.346Z,10.56
2017-10-06T00:50:32.328Z,10.56
2017-10-06T00:51:31.990Z,10.52
2017-10-06T00:52:32.619Z,10.52
2017-10-06T00:53:32.602Z,10.52
2017-10-06T00:54:31.939Z,10.56
2017-10-06T00:55:32.568Z,10.56
2017-10-06T00:56:32.554Z,10.56
2017-10-06T00:57:32.541Z,10.56
2017-10-06T00:58:32.201Z,10.52
2017-10-06T00:59:32.506Z,10.55
2017-10-06T01:00:32.162Z,10.53
2017-10-06T01:01:32.474Z,10.53
2017-10-06T01:02:32.129Z,10.53
2017-10-06T01:03:32.161Z,10.53
2017-10-06T01:04:31.775Z,10.52
2017-10-06T01:05:31.767Z,10.58
2017-10-06T01:06:32.380Z,10.53
2017-10-06T01:07:31.723Z,10.53
2017-10-06T01:08:32.028Z,10.47
2017-10-06T01:09:32.011Z,10.46
2017-10-06T01:10:32.321Z,10.46
2017-10-06T01:11:31.977Z,10.42
2017-10-06T01:12:31.638Z,10.42
2017-10-06T01:13:32.271Z,10.37
2017-10-06T01:14:32.252Z,10.47
2017-10-06T01:15:32.235Z,10.42
2017-10-06T01:16:31.895Z,10.52
2017-10-06T01:17:31.890Z,10.51
2017-10-06T01:18:32.192Z,10.51
2017-10-06T01:19:31.847Z,10.51
2017-10-06T01:20:31.830Z,10.47
2017-10-06T01:21:31.815Z,10.51
2017-10-06T01:22:31.792Z,10.51
2017-10-06T01:23:31.777Z,10.53
2017-10-06T01:24:31.440Z,10.52
2017-10-06T01:25:31.750Z,10.55
2017-10-06T01:26:31.407Z,10.52
2017-10-06T01:27:32.033Z,10.56
2017-10-06T01:28:31.692Z,10.53
2017-10-06T01:29:32.008Z,10.53
2017-10-06T01:30:31.659Z,10.55
2017-10-06T01:31:31.644Z,10.52
2017-10-06T01:32:31.954Z,10.53
2017-10-06T01:33:31.929Z,10.52
2017-10-06T01:34:31.269Z,10.53
2017-10-06T01:35:31.585Z,10.53
2017-10-06T01:36:31.239Z,10.53
2017-10-06T01:37:31.865Z,10.51
2017-10-06T01:38:31.524Z,10.53
2017-10-06T01:39:31.524Z,10.46
2017-10-06T01:40:31.491Z,10.47
2017-10-06T01:41:31.475Z,10.47
2017-10-06T01:42:31.783Z,10.4
2017-10-06T01:43:31.777Z,10.51
2017-10-06T01:44:31.431Z,10.47
2017-10-06T01:45:31.735Z,10.53
2017-10-06T01:46:31.391Z,10.47
2017-10-06T01:47:31.064Z,10.53
2017-10-06T01:48:31.357Z,10.53
2017-10-06T01:49:31.346Z,10.53
2017-10-06T01:50:31.322Z,10.43
2017-10-06T01:51:31.632Z,10.4
2017-10-06T01:52:31.614Z,10.4
2017-10-06T01:53:30.957Z,10.33
2017-10-06T01:54:31.258Z,10.43
2017-10-06T01:55:31.570Z,10.46
2017-10-06T01:56:30.900Z,10.4
2017-10-06T01:57:30.889Z,10.4
2017-10-06T01:58:31.195Z,10.44
2017-10-06T01:59:30.854Z,10.39
2017-10-06T02:00:30.838Z,10.43
2017-10-06T02:01:30.820Z,10.39
2017-10-06T02:02:31.131Z,10.42
2017-10-06T02:03:31.136Z,10.46
2017-10-06T02:04:31.094Z,10.44
2017-10-06T02:05:30.759Z,10.39
2017-10-06T02:06:31.385Z,10.4
2017-10-06T02:07:31.043Z,10.51
2017-10-06T02:08:31.027Z,10.39
2017-10-06T02:09:31.010Z,10.39
2017-10-06T02:10:30.991Z,10.43
2017-10-06T02:11:31.304Z,10.43
2017-10-06T02:12:31.362Z,10.43
2017-10-06T02:13:31.264Z,10.52
2017-10-06T02:14:30.950Z,10.39
2017-10-06T02:15:30.599Z,10.47
2017-10-06T02:16:30.911Z,10.44
2017-10-06T02:17:31.200Z,10.44
2017-10-06T02:18:31.189Z,10.39
2017-10-06T02:19:30.847Z,10.4
2017-10-06T02:20:30.833Z,10.4
2017-10-06T02:21:30.488Z,10.36
2017-10-06T02:22:30.799Z,10.33
2017-10-06T02:23:30.782Z,10.43
2017-10-06T02:24:31.082Z,10.43
2017-10-06T02:25:30.424Z,10.37
2017-10-06T02:26:30.727Z,10.39
2017-10-06T02:27:30.391Z,10.3
2017-10-06T02:28:30.693Z,10.3
2017-10-06T02:29:31.004Z,10.3
2017-10-06T02:30:30.658Z,10.4
2017-10-06T02:31:30.972Z,10.37
2017-10-06T02:32:30.625Z,10.3
2017-10-06T02:33:30.291Z,10.28
2017-10-06T02:34:30.915Z,10.32
2017-10-06T02:35:30.254Z,10.33
2017-10-06T02:36:30.554Z,10.33
2017-10-06T02:37:30.220Z,10.3
2017-10-06T02:38:30.210Z,10.36
2017-10-06T02:39:30.833Z,10.37
2017-10-06T02:40:30.812Z,10.37
2017-10-06T02:41:30.481Z,10.39
2017-10-06T02:42:30.782Z,10.33
2017-10-06T02:43:30.447Z,10.36
2017-10-06T02:44:30.751Z,10.34
2017-10-06T02:45:30.412Z,10.32
2017-10-06T02:46:30.070Z,10.37
2017-10-06T02:47:30.060Z,10.34
2017-10-06T02:48:30.356Z,10.36
2017-10-06T02:49:30.342Z,10.33
2017-10-06T02:50:30.327Z,10.33
2017-10-06T02:51:30.635Z,10.28
2017-10-06T02:52:30.289Z,10.33
2017-10-06T02:53:30.278Z,10.36
2017-10-06T02:54:30.257Z,10.34
2017-10-06T02:55:30.619Z,10.34
2017-10-06T02:56:30.224Z,10.24
2017-10-06T02:57:30.213Z,10.4
2017-10-06T02:58:29.869Z,10.28
2017-10-06T02:59:30.172Z,10.33
2017-10-06T03:00:30.481Z,10.36
2017-10-06T03:01:30.461Z,10.26
2017-10-06T03:02:30.122Z,10.26
2017-10-06T03:03:30.106Z,10.3
2017-10-06T03:04:30.091Z,10.37
2017-10-06T03:05:30.397Z,10.28
2017-10-06T03:06:30.057Z,10.25
2017-10-06T03:07:30.362Z,10.34
2017-10-06T03:08:29.704Z,10.37
2017-10-06T03:09:29.683Z,10.32
2017-10-06T03:10:30.339Z,10.36
2017-10-06T03:11:30.315Z,10.33
2017-10-06T03:12:29.641Z,10.33
2017-10-06T03:13:30.270Z,10.37
2017-10-06T03:14:29.927Z,10.39
2017-10-06T03:15:29.581Z,10.34
2017-10-06T03:16:29.895Z,10.32
2017-10-06T03:17:29.870Z,10.36
2017-10-06T03:18:29.854Z,10.26
2017-10-06T03:19:30.160Z,10.36
2017-10-06T03:20:30.143Z,10.25
2017-10-06T03:21:29.802Z,10.36
2017-10-06T03:22:29.793Z,10.28
2017-10-06T03:23:29.775Z,10.34
2017-10-06T03:24:30.073Z,10.3
2017-10-06T03:25:30.061Z,10.18
2017-10-06T03:26:29.401Z,10.24
2017-10-06T03:27:29.392Z,10.28
2017-10-06T03:28:29.374Z,10.3
2017-10-06T03:29:29.995Z,10.39
2017-10-06T03:30:29.659Z,10.25
2017-10-06T03:31:29.641Z,10.33
2017-10-06T03:32:29.945Z,10.37
2017-10-06T03:33:29.281Z,10.32
2017-10-06T03:34:29.587Z,10.34
2017-10-06T03:35:29.570Z,10.33
2017-10-06T03:36:29.558Z,10.39
2017-10-06T03:37:29.534Z,10.4
2017-10-06T03:38:29.517Z,10.26
2017-10-06T03:39:29.823Z,10.36
2017-10-06T03:40:29.821Z,10.3
2017-10-06T03:41:29.805Z,10.39
2017-10-06T03:42:29.457Z,10.33
2017-10-06T03:43:29.757Z,10.39
2017-10-06T03:44:29.425Z,10.33
2017-10-06T03:45:29.731Z,10.42
2017-10-06T03:46:29.396Z,10.34
2017-10-06T03:47:29.375Z,10.4
2017-10-06T03:48:29.358Z,10.4
2017-10-06T03:49:29.657Z,10.39
2017-10-06T03:50:28.999Z,10.43
2017-10-06T03:51:28.996Z,10.4
2017-10-06T03:52:28.961Z,10.33
2017-10-06T03:53:29.270Z,10.32
2017-10-06T03:54:29.249Z,10.33
2017-10-06T03:55:29.243Z,10.32
2017-10-06T03:56:29.545Z,10.28
2017-10-06T03:57:29.201Z,10.36
2017-10-06T03:58:29.507Z,10.33
2017-10-06T03:59:29.492Z,10.37
2017-10-06T04:00:28.832Z,10.26
2017-10-06T04:01:29.137Z,10.34
2017-10-06T04:02:29.112Z,10.22
2017-10-06T04:03:29.426Z,10.19
2017-10-06T04:04:28.768Z,10.21
2017-10-06T04:05:29.391Z,10.22
2017-10-06T04:06:28.729Z,10.15
2017-10-06T04:07:29.035Z,10.09
2017-10-06T04:08:29.013Z,10.1
2017-10-06T04:09:29.005Z,10.01
2017-10-06T04:10:29.306Z,10.06
2017-10-06T04:11:29.288Z,9.94
2017-10-06T04:12:29.001Z,10.06
2017-10-06T04:13:29.252Z,10.03
2017-10-06T04:14:28.915Z,10.04
2017-10-06T04:15:28.578Z,10.03
2017-10-06T04:16:29.212Z,10
2017-10-06T04:17:29.184Z,10
2017-10-06T04:18:28.526Z,9.97
2017-10-06T04:19:28.836Z,9.99
2017-10-06T04:20:28.815Z,9.99
2017-10-06T04:21:29.113Z,10
2017-10-06T04:22:29.099Z,9.96
2017-10-06T04:23:28.452Z,10.01
2017-10-06T04:24:29.067Z,10.03
2017-10-06T04:25:28.727Z,10
2017-10-06T04:26:29.046Z,10.03
2017-10-06T04:27:28.695Z,10.06
2017-10-06T04:28:28.677Z,10.07
2017-10-06T04:29:28.986Z,10.03
2017-10-06T04:30:28.973Z,10
2017-10-06T04:31:28.307Z,10.01
2017-10-06T04:32:28.615Z,10.07
2017-10-06T04:33:28.269Z,10.12
2017-10-06T04:34:28.899Z,10.17
2017-10-06T04:35:28.878Z,10.18
2017-10-06T04:36:28.860Z,10.15
2017-10-06T04:37:28.523Z,10.18
2017-10-06T04:38:28.508Z,10.15
2017-10-06T04:39:28.813Z,10.21
2017-10-06T04:40:28.467Z,10.1
2017-10-06T04:41:28.130Z,10.14
2017-10-06T04:42:28.436Z,10.19
2017-10-06T04:43:28.097Z,10.19
2017-10-06T04:44:28.409Z,10.19
2017-10-06T04:45:28.383Z,10.19
2017-10-06T04:46:28.690Z,10.15
2017-10-06T04:47:28.346Z,10.19
2017-10-06T04:48:28.333Z,10.17
2017-10-06T04:49:28.643Z,10.19
2017-10-06T04:50:28.622Z,10.17
2017-10-06T04:51:27.965Z,10.03
2017-10-06T04:52:28.600Z,10.15
2017-10-06T04:53:28.253Z,10.12
2017-10-06T04:54:28.235Z,10.1
2017-10-06T04:55:28.214Z,10
2017-10-06T04:56:28.522Z,10.07
2017-10-06T04:57:28.505Z,10.04
2017-10-06T04:58:28.484Z,10.03
2017-10-06T04:59:28.151Z,10.04
2017-10-06T05:00:28.133Z,10.04
2017-10-06T05:01:28.115Z,10.01
2017-10-06T05:02:28.095Z,10.04
2017-10-06T05:03:28.079Z,10
2017-10-06T05:04:28.399Z,10.09
2017-10-06T05:05:28.043Z,10
2017-10-06T05:06:28.024Z,10
2017-10-06T05:07:28.011Z,9.97
2017-10-06T05:08:28.312Z,9.96
2017-10-06T05:09:27.981Z,9.97
2017-10-06T05:10:27.973Z,9.94
2017-10-06T05:11:27.628Z,9.93
2017-10-06T05:12:27.926Z,9.94
2017-10-06T05:13:27.910Z,9.96
2017-10-06T05:14:27.891Z,10
2017-10-06T05:15:27.871Z,9.97
2017-10-06T05:16:28.194Z,9.97
2017-10-06T05:17:28.161Z,9.96
2017-10-06T05:18:27.821Z,9.97
2017-10-06T05:19:28.135Z,9.93
2017-10-06T05:20:27.791Z,10.03
2017-10-06T05:21:27.452Z,9.93
2017-10-06T05:22:28.080Z,9.94
2017-10-06T05:23:27.414Z,9.97
2017-10-06T05:24:27.718Z,9.97
2017-10-06T05:25:28.024Z,9.82
2017-10-06T05:26:27.366Z,9.93
2017-10-06T05:27:28.000Z,9.88
2017-10-06T05:28:27.648Z,9.89
2017-10-06T05:29:27.634Z,9.79
2017-10-06T05:30:27.614Z,9.75
2017-10-06T05:31:27.599Z,9.79
2017-10-06T05:32:27.584Z,9.79
2017-10-06T05:33:27.565Z,9.78
2017-10-06T05:34:27.875Z,9.81
2017-10-06T05:35:27.536Z,9.79
2017-10-06T05:36:27.526Z,9.83
2017-10-06T05:37:27.815Z,9.82
2017-10-06T05:38:27.803Z,9.81
2017-10-06T05:39:27.466Z,9.76
2017-10-06T05:40:27.761Z,9.79
2017-10-06T05:41:27.428Z,9.79
2017-10-06T05:42:27.408Z,9.82
2017-10-06T05:43:27.399Z,9.73
2017-10-06T05:44:27.702Z,9.83
2017-10-06T05:45:27.354Z,9.82
2017-10-06T05:46:27.017Z,9.76
2017-10-06T05:47:27.641Z,9.76
2017-10-06T05:48:27.632Z,9.83
2017-10-06T05:49:27.295Z,9.75
2017-10-06T05:50:27.593Z,9.85
2017-10-06T05:51:27.259Z,9.73
2017-10-06T05:52:27.571Z,9.73
2017-10-06T05:53:27.545Z,9.71
2017-10-06T05:54:27.533Z,9.71
2017-10-06T05:55:27.183Z,9.75
2017-10-06T05:56:26.850Z,9.75
2017-10-06T05:57:27.154Z,9.7
2017-10-06T05:58:27.135Z,9.7
2017-10-06T05:59:27.128Z,9.75
2017-10-06T06:00:27.419Z,9.75
2017-10-06T06:01:27.085Z,9.73
2017-10-06T06:02:27.063Z,9.7
2017-10-06T06:03:26.722Z,9.71
2017-10-06T06:04:27.031Z,9.76
2017-10-06T06:05:27.335Z,9.73
2017-10-06T06:06:26.675Z,9.7
2017-10-06T06:07:26.977Z,9.71
2017-10-06T06:08:26.973Z,9.75
2017-10-06T06:09:27.265Z,9.76
2017-10-06T06:10:27.246Z,9.76
2017-10-06T06:11:26.909Z,9.7
2017-10-06T06:12:27.215Z,9.71
2017-10-06T06:13:26.760Z,9.7
2017-10-06T06:14:26.865Z,9.76
2017-10-06T06:15:26.838Z,9.82
2017-10-06T06:16:27.146Z,9.79
2017-10-06T06:17:26.810Z,9.86
2017-10-06T06:18:27.109Z,9.83
2017-10-06T06:19:27.092Z,9.93
2017-10-06T06:20:26.754Z,9.93
2017-10-06T06:21:27.059Z,9.91
2017-10-06T06:22:27.040Z,9.93
2017-10-06T06:23:27.025Z,9.89
2017-10-06T06:24:26.684Z,10
2017-10-06T06:25:26.671Z,9.88
2017-10-06T06:26:26.973Z,9.96
2017-10-06T06:27:26.630Z,9.96
2017-10-06T06:28:26.635Z,9.93
2017-10-06T06:29:26.600Z,10
2017-10-06T06:30:26.588Z,9.97
2017-10-06T06:31:26.244Z,9.94
2017-10-06T06:32:26.864Z,9.94
2017-10-06T06:33:26.526Z,9.93
2017-10-06T06:34:26.512Z,9.99
2017-10-06T06:35:26.498Z,9.99
2017-10-06T06:36:26.480Z,9.97
2017-10-06T06:37:26.798Z,10.07
2017-10-06T06:38:26.446Z,9.99
2017-10-06T06:39:26.100Z,10.06
2017-10-06T06:40:26.732Z,10.06
2017-10-06T06:41:26.740Z,9.99
2017-10-06T06:42:26.380Z,10.01
2017-10-06T06:43:26.045Z,10.06
2017-10-06T06:44:26.345Z,10.06
2017-10-06T06:45:26.656Z,10.01
2017-10-06T06:46:26.316Z,10.06
2017-10-06T06:47:26.609Z,10.09
2017-10-06T06:48:26.269Z,10.14
2017-10-06T06:49:26.262Z,10.18
2017-10-06T06:50:26.242Z,10.21
2017-10-06T06:51:26.545Z,10.24
2017-10-06T06:52:26.209Z,10.36
2017-10-06T06:53:26.182Z,10.3
2017-10-06T06:54:26.497Z,10.32
2017-10-06T06:55:26.155Z,10.3
2017-10-06T06:56:26.457Z,10.36
2017-10-06T06:57:26.118Z,10.46
2017-10-06T06:58:26.099Z,10.55
2017-10-06T06:59:26.411Z,10.52
2017-10-06T07:00:26.076Z,10.71
2017-10-06T07:01:26.053Z,10.71
2017-10-06T07:02:25.716Z,10.68
2017-10-06T07:03:26.343Z,10.66
2017-10-06T07:04:26.002Z,10.8
2017-10-06T07:05:25.989Z,10.74
2017-10-06T07:06:26.294Z,10.83
2017-10-06T07:07:26.280Z,10.84
2017-10-06T07:08:26.262Z,10.91
2017-10-06T07:09:25.918Z,10.91
2017-10-06T07:10:25.928Z,10.96
2017-10-06T07:11:26.213Z,11.01
2017-10-06T07:12:25.540Z,11.1
2017-10-06T07:13:25.850Z,11.13
2017-10-06T07:14:25.519Z,11.11
2017-10-06T07:15:26.138Z,11.02
2017-10-06T07:16:25.807Z,11.03
2017-10-06T07:17:25.785Z,11.17
2017-10-06T07:18:25.801Z,11.25
2017-10-06T07:19:25.772Z,11.27
2017-10-06T07:20:25.735Z,11.24
2017-10-06T07:21:25.725Z,11.25
2017-10-06T07:22:26.026Z,11.19
2017-10-06T07:23:26.004Z,11.25
2017-10-06T07:24:25.674Z,11.21
2017-10-06T07:25:25.979Z,11.19
2017-10-06T07:26:25.644Z,11.19
2017-10-06T07:27:25.953Z,11.17
2017-10-06T07:28:25.941Z,11.17
2017-10-06T07:29:25.594Z,11.2
2017-10-06T07:30:25.574Z,11.2
2017-10-06T07:31:25.886Z,11.16
2017-10-06T07:32:25.547Z,11.19
2017-10-06T07:33:25.528Z,11.27
2017-10-06T07:34:25.521Z,11.27
2017-10-06T07:35:25.812Z,11.34
2017-10-06T07:36:25.480Z,11.31
2017-10-06T07:37:25.795Z,11.27
2017-10-06T07:38:25.458Z,11.29
2017-10-06T07:39:25.115Z,11.38
2017-10-06T07:40:25.736Z,11.34
2017-10-06T07:41:25.726Z,11.46
2017-10-06T07:42:25.067Z,11.46
2017-10-06T07:43:25.691Z,11.47
2017-10-06T07:44:25.680Z,11.43
2017-10-06T07:45:25.665Z,11.39
2017-10-06T07:46:25.334Z,11.43
2017-10-06T07:47:25.645Z,11.46
2017-10-06T07:48:25.622Z,11.47
2017-10-06T07:49:25.276Z,11.53
2017-10-06T07:50:25.582Z,11.52
2017-10-06T07:51:25.248Z,11.47
2017-10-06T07:52:25.238Z,11.61
2017-10-06T07:53:25.211Z,11.62
2017-10-06T07:54:25.202Z,11.62
2017-10-06T07:55:25.186Z,11.82
2017-10-06T07:56:25.494Z,11.82
2017-10-06T07:57:25.470Z,11.9
2017-10-06T07:58:24.815Z,11.87
2017-10-06T07:59:25.151Z,11.97
2017-10-06T08:00:25.117Z,11.94
2017-10-06T08:01:25.410Z,12.01
2017-10-06T08:02:25.071Z,12.09
2017-10-06T08:03:25.056Z,12.02
2017-10-06T08:04:25.414Z,12.08
2017-10-06T08:05:25.343Z,12.09
2017-10-06T08:06:25.009Z,12.09
2017-10-06T08:07:25.312Z,12.13
2017-10-06T08:08:25.323Z,12.15
2017-10-06T08:09:25.308Z,12.2
2017-10-06T08:10:25.276Z,12.13
2017-10-06T08:11:25.256Z,12.21
2017-10-06T08:12:25.239Z,12.23
2017-10-06T08:13:25.428Z,12.23
2017-10-06T08:14:24.886Z,12.26
2017-10-06T08:15:25.198Z,12.2
2017-10-06T08:16:25.177Z,12.23
2017-10-06T08:17:25.166Z,12.2
2017-10-06T08:18:25.152Z,12.2
2017-10-06T08:19:24.818Z,12.21
2017-10-06T08:20:24.798Z,12.19
2017-10-06T08:21:24.463Z,12.21
2017-10-06T08:22:24.772Z,12.21
2017-10-06T08:23:25.085Z,12.21
2017-10-06T08:24:25.061Z,12.44
2017-10-06T08:25:24.725Z,12.45
2017-10-06T08:26:25.029Z,12.38
2017-10-06T08:27:24.694Z,12.38
2017-10-06T08:28:24.681Z,12.46
2017-10-06T08:29:24.988Z,12.37
2017-10-06T08:30:24.650Z,12.34
2017-10-06T08:31:24.959Z,12.39
2017-10-06T08:32:24.297Z,12.38
2017-10-06T08:33:24.602Z,12.3
2017-10-06T08:34:24.587Z,12.41
2017-10-06T08:35:24.578Z,12.33
2017-10-06T08:36:24.559Z,12.33
2017-10-06T08:37:24.548Z,12.34
2017-10-06T08:38:24.212Z,12.41
2017-10-06T08:39:24.834Z,12.45
2017-10-06T08:40:24.826Z,12.42
2017-10-06T08:41:24.492Z,12.48
2017-10-06T08:42:24.792Z,12.49
2017-10-06T08:43:24.460Z,12.57
2017-10-06T08:44:24.439Z,12.46
2017-10-06T08:45:24.749Z,12.48
2017-10-06T08:46:24.415Z,12.42
2017-10-06T08:47:24.397Z,12.42
2017-10-06T08:48:24.382Z,12.34
2017-10-06T08:49:24.368Z,12.41
2017-10-06T08:50:24.033Z,12.39
2017-10-06T08:51:24.339Z,12.38
2017-10-06T08:52:24.325Z,12.34
2017-10-06T08:53:24.631Z,12.41
2017-10-06T08:54:24.294Z,12.3
2017-10-06T08:55:24.606Z,12.19
2017-10-06T08:56:24.595Z,12.13
2017-10-06T08:57:24.251Z,12.24
2017-10-06T08:58:24.559Z,12.16
2017-10-06T08:59:24.540Z,12.21
2017-10-06T09:00:24.204Z,12.29
2017-10-06T09:01:24.513Z,12.26
2017-10-06T09:02:23.859Z,12.31
2017-10-06T09:03:23.841Z,12.39
2017-10-06T09:04:24.152Z,12.41
2017-10-06T09:05:24.454Z,12.44
2017-10-06T09:06:24.127Z,12.46
2017-10-06T09:07:23.781Z,12.48
2017-10-06T09:08:24.093Z,12.59
2017-10-06T09:09:24.077Z,12.51
2017-10-06T09:10:23.744Z,12.7
2017-10-06T09:11:24.049Z,12.66
2017-10-06T09:12:23.715Z,12.63
2017-10-06T09:13:24.337Z,12.71
2017-10-06T09:14:24.006Z,12.69
2017-10-06T09:15:24.311Z,12.7
2017-10-06T09:16:23.983Z,12.6
2017-10-06T09:17:23.643Z,12.64
2017-10-06T09:18:23.950Z,12.64
2017-10-06T09:19:23.936Z,12.6
2017-10-06T09:20:24.241Z,12.49
2017-10-06T09:21:23.589Z,12.46
2017-10-06T09:22:23.905Z,12.49
2017-10-06T09:23:23.876Z,12.51
2017-10-06T09:24:23.861Z,12.51
2017-10-06T09:25:23.528Z,12.48
2017-10-06T09:26:23.835Z,12.45
2017-10-06T09:27:23.820Z,12.44
2017-10-06T09:28:23.481Z,12.49
2017-10-06T09:29:23.472Z,12.34
2017-10-06T09:30:23.776Z,12.37
2017-10-06T09:31:23.439Z,12.39
2017-10-06T09:32:23.748Z,12.41
2017-10-06T09:33:23.407Z,12.3
2017-10-06T09:34:23.723Z,12.24
2017-10-06T09:35:23.384Z,12.2
2017-10-06T09:36:24.007Z,12.24
2017-10-06T09:37:23.679Z,12.24
2017-10-06T09:38:23.999Z,12.19
2017-10-06T09:39:23.653Z,12.27
2017-10-06T09:40:23.960Z,12.2
2017-10-06T09:41:23.943Z,12.15
2017-10-06T09:42:23.285Z,12.24
2017-10-06T09:43:23.592Z,12.2
2017-10-06T09:44:23.569Z,12.16
2017-10-06T09:45:23.238Z,12.15
2017-10-06T09:46:23.540Z,12.11
2017-10-06T09:47:23.529Z,12.06
2017-10-06T09:48:23.512Z,12.09
2017-10-06T09:49:23.496Z,11.97
2017-10-06T09:50:23.501Z,12.02
2017-10-06T09:51:23.474Z,11.87
2017-10-06T09:52:23.773Z,11.93
2017-10-06T09:53:23.439Z,11.93
2017-10-06T09:54:23.750Z,11.77
2017-10-06T09:55:23.734Z,11.75
2017-10-06T09:56:23.716Z,11.82
2017-10-06T09:57:23.700Z,11.85
2017-10-06T09:58:23.692Z,11.8
2017-10-06T09:59:23.671Z,11.85
2017-10-06T10:00:23.335Z,11.82
2017-10-06T10:01:23.324Z,11.82
2017-10-06T10:02:23.626Z,11.8
2017-10-06T10:03:23.289Z,11.82
2017-10-06T10:04:23.596Z,11.85
2017-10-06T10:05:23.580Z,11.68
2017-10-06T10:06:23.566Z,11.72
2017-10-06T10:07:23.250Z,11.68
2017-10-06T10:08:23.211Z,11.64
2017-10-06T10:09:23.209Z,11.71
2017-10-06T10:10:23.509Z,11.65
2017-10-06T10:11:23.494Z,11.59
2017-10-06T10:12:23.153Z,11.64
2017-10-06T10:13:23.661Z,11.64
2017-10-06T10:14:23.445Z,11.54
2017-10-06T10:15:23.154Z,11.5
2017-10-06T10:16:23.094Z,11.52
2017-10-06T10:17:23.081Z,11.56
2017-10-06T10:18:23.382Z,11.47
2017-10-06T10:19:23.367Z,11.56
2017-10-06T10:20:23.033Z,11.56
2017-10-06T10:21:23.012Z,11.61
2017-10-06T10:22:23.319Z,11.65
2017-10-06T10:23:22.980Z,11.62
2017-10-06T10:24:22.645Z,11.61
2017-10-06T10:25:22.954Z,11.67
2017-10-06T10:26:22.614Z,11.71
2017-10-06T10:27:23.250Z,11.71
2017-10-06T10:28:22.583Z,11.68
2017-10-06T10:29:22.892Z,11.78
2017-10-06T10:30:23.206Z,11.7
2017-10-06T10:31:22.857Z,11.78
2017-10-06T10:32:22.530Z,11.8
2017-10-06T10:33:22.828Z,11.85
2017-10-06T10:34:22.815Z,11.86
2017-10-06T10:35:22.802Z,11.86
2017-10-06T10:36:22.785Z,11.89
2017-10-06T10:37:22.777Z,11.94
2017-10-06T10:38:23.086Z,11.97
2017-10-06T10:39:22.745Z,11.96
2017-10-06T10:40:23.049Z,12.12
2017-10-06T10:41:22.392Z,12.11
2017-10-06T10:42:23.016Z,12.2
2017-10-06T10:43:22.690Z,12.26
2017-10-06T10:44:22.990Z,12.19
2017-10-06T10:45:23.004Z,12.21
2017-10-06T10:46:22.317Z,12.26
2017-10-06T10:47:22.620Z,12.34
2017-10-06T10:48:22.945Z,12.33
2017-10-06T10:49:22.280Z,12.39
2017-10-06T10:50:22.587Z,12.44
2017-10-06T10:51:22.582Z,12.51
2017-10-06T10:52:22.236Z,12.31
2017-10-06T10:53:22.540Z,12.46
2017-10-06T10:54:22.842Z,12.39
2017-10-06T10:55:22.188Z,12.49
2017-10-06T10:56:22.171Z,12.49
2017-10-06T10:57:22.157Z,12.37
2017-10-06T10:58:22.467Z,12.38
2017-10-06T10:59:22.127Z,12.41
2017-10-06T11:00:22.757Z,12.37
2017-10-06T11:01:22.749Z,12.39
2017-10-06T11:02:22.404Z,12.48
2017-10-06T11:03:22.394Z,12.39
2017-10-06T11:04:22.702Z,12.44
2017-10-06T11:05:22.686Z,12.46
2017-10-06T11:06:22.028Z,12.49
2017-10-06T11:07:22.338Z,12.52
2017-10-06T11:08:22.321Z,12.54
2017-10-06T11:09:21.985Z,12.52
2017-10-06T11:10:22.615Z,12.66
2017-10-06T11:11:22.603Z,12.69
2017-10-06T11:12:22.588Z,12.7
2017-10-06T11:13:22.253Z,12.69
2017-10-06T11:14:22.561Z,12.81
2017-10-06T11:15:21.902Z,12.77
2017-10-06T11:16:22.532Z,12.78
2017-10-06T11:17:22.194Z,12.84
2017-10-06T11:18:22.192Z,12.89
2017-10-06T11:19:22.183Z,12.88
2017-10-06T11:20:22.157Z,12.96
2017-10-06T11:21:22.478Z,12.93
2017-10-06T11:22:22.457Z,12.99
2017-10-06T11:23:22.441Z,13.03
2017-10-06T11:24:22.421Z,13.24
2017-10-06T11:25:22.099Z,13.17
2017-10-06T11:26:22.081Z,13.37
2017-10-06T11:27:22.064Z,13.37
2017-10-06T11:28:22.050Z,13.46
2017-10-06T11:29:22.034Z,13.54
2017-10-06T11:30:22.355Z,13.58
2017-10-06T11:31:22.018Z,13.71
2017-10-06T11:32:22.318Z,13.84
2017-10-06T11:33:21.987Z,13.89
2017-10-06T11:34:22.294Z,14.14
2017-10-06T11:35:21.962Z,14.21
2017-10-06T11:36:21.951Z,14.24
2017-10-06T11:37:22.257Z,14.21
2017-10-06T11:38:22.255Z,14.39
2017-10-06T11:39:21.919Z,14.47
2017-10-06T11:40:21.910Z,14.5
2017-10-06T11:41:22.213Z,14.49
2017-10-06T11:42:21.887Z,14.65
2017-10-06T11:43:22.190Z,14.86
2017-10-06T11:44:22.182Z,14.88
2017-10-06T11:45:21.848Z,14.87
2017-10-06T11:46:21.843Z,14.87
2017-10-06T11:47:22.148Z,14.84
2017-10-06T11:48:21.496Z,14.9
2017-10-06T11:49:22.124Z,15.01
2017-10-06T11:50:21.798Z,14.95
2017-10-06T11:51:22.111Z,14.95
2017-10-06T11:52:21.780Z,14.93
2017-10-06T11:53:21.458Z,14.88
2017-10-06T11:54:22.085Z,14.75
2017-10-06T11:55:21.752Z,14.81
2017-10-06T11:56:21.425Z,14.88
2017-10-06T11:57:22.055Z,15.09
2017-10-06T11:58:21.721Z,15.3
2017-10-06T11:59:21.717Z,15.45
2017-10-06T12:00:21.705Z,15.74
2017-10-06T12:01:21.698Z,16.16
2017-10-06T12:02:21.364Z,16.49
2017-10-06T12:03:21.675Z,16.85
2017-10-06T12:04:21.670Z,17.2
2017-10-06T12:05:21.676Z,17.54
2017-10-06T12:06:21.654Z,17.92
2017-10-06T12:07:21.649Z,18.18
2017-10-06T12:08:21.969Z,18.34
2017-10-06T12:09:21.318Z,18.5
2017-10-06T12:10:22.175Z,18.83
2017-10-06T12:11:21.631Z,18.79
2017-10-06T12:12:21.299Z,18.7
2017-10-06T12:13:21.831Z,18.54
2017-10-06T12:14:21.942Z,18.5
2017-10-06T12:15:21.289Z,18.65
2017-10-06T12:16:21.612Z,18.82
2017-10-06T12:17:21.603Z,18.9
2017-10-06T12:18:21.594Z,18.5
2017-10-06T12:19:21.592Z,17.92
2017-10-06T12:20:21.275Z,17.66
2017-10-06T12:21:21.906Z,17.53
2017-10-06T12:22:21.899Z,17.22
2017-10-06T12:23:21.895Z,16.96
2017-10-06T12:24:21.569Z,16.75
2017-10-06T12:25:21.887Z,16.56
2017-10-06T12:26:21.562Z,16.35
2017-10-06T12:27:21.889Z,16
2017-10-06T12:28:21.555Z,15.86
2017-10-06T12:29:21.551Z,15.92
2017-10-06T12:30:21.536Z,16.11
2017-10-06T12:31:21.536Z,16.5
2017-10-06T12:32:21.209Z,16.86
2017-10-06T12:33:21.518Z,17.5
2017-10-06T12:34:21.515Z,17.71
2017-10-06T12:35:21.184Z,17.53
2017-10-06T12:36:21.505Z,18.07
2017-10-06T12:37:21.490Z,18.59
2017-10-06T12:38:21.490Z,19.11
2017-10-06T12:39:21.481Z,18.57
2017-10-06T12:40:21.152Z,18.68
2017-10-06T12:41:21.152Z,18.67
2017-10-06T12:42:21.468Z,18.8
2017-10-06T12:43:21.780Z,19.13
2017-10-06T12:44:21.133Z,19.42
2017-10-06T12:45:21.453Z,19.69
2017-10-06T12:46:21.452Z,19.78
2017-10-06T12:47:21.134Z,20.18
2017-10-06T12:48:21.119Z,19.4
2017-10-06T12:49:21.762Z,19.06
2017-10-06T12:50:21.431Z,18.9
2017-10-06T12:51:21.748Z,19.36
2017-10-06T12:52:21.750Z,19.4
2017-10-06T12:53:21.430Z,19.9
2017-10-06T12:54:21.430Z,20.21
2017-10-06T12:55:21.737Z,20.38
2017-10-06T12:56:21.415Z,20.2
2017-10-06T12:57:21.737Z,20.24
2017-10-06T12:58:21.417Z,20.35
2017-10-06T12:59:21.078Z,19.93